Time;durP1;ratioP1;P1;durP2;ratioP2;P2;SDS_P1;SDS_P2;PMS_P1;PMS_P2;Temp;Humidity;BMP_temperature;BMP_pressure;BME280_temperature;BME280_humidity;BME280_pressure;Samples;Min_cycle;Max_cycle;Signal;HPM_P1;HPM_P2
2021/09/16 00:02:00;;;;;;;0.63;0.50;;;;;;;;;;4456490;28;20028;-62
2021/09/16 00:04:10;;;;;;;0.47;0.40;;;;;;;;;;4455961;28;20054;-62
2021/09/16 00:06:21;;;;;;;1.10;0.60;;;;;;;;;;4470608;28;20497;-63
2021/09/16 00:08:31;;;;;;;2.03;0.60;;;;;;;;;;4457917;28;20039;-63
2021/09/16 00:10:42;;;;;;;1.00;0.60;;;;;;;;;;4486947;28;33936;-62
2021/09/16 00:12:52;;;;;;;0.70;0.50;;;;;;;;;;4456780;28;20038;-62
2021/09/16 00:15:07;;;;;;;1.43;0.47;;;;;;;;;;4455783;28;22191;-64
2021/09/16 00:17:18;;;;;;;1.08;0.50;;;;;;;;;;4456062;28;20403;-64
2021/09/16 00:19:28;;;;;;;0.80;0.50;;;;;;;;;;4456338;28;20078;-64
2021/09/16 00:21:39;;;;;;;1.13;0.60;;;;;;;;;;4459070;28;20015;-63
2021/09/16 00:23:49;;;;;;;0.77;0.60;;;;;;;;;;4456553;28;20126;-62
2021/09/16 00:25:59;;;;;;;1.53;0.50;;;;;;;;;;4455864;28;37392;-63
2021/09/16 00:28:10;;;;;;;0.83;0.60;;;;;;;;;;4487291;28;20045;-63
2021/09/16 00:30:21;;;;;;;0.43;0.40;;;;;;;;;;4469253;28;20406;-62
2021/09/16 00:32:31;;;;;;;0.67;0.50;;;;;;;;;;4487874;28;20744;-62
2021/09/16 00:34:41;;;;;;;1.67;0.70;;;;;;;;;;4458151;28;21441;-62
2021/09/16 00:36:52;;;;;;;1.43;0.50;;;;;;;;;;4456753;28;20144;-62
2021/09/16 00:39:03;;;;;;;0.70;0.50;;;;;;;;;;4476556;28;20022;-62
2021/09/16 00:41:15;;;;;;;1.52;0.63;;;;;;;;;;4456359;28;20035;-62
2021/09/16 00:43:25;;;;;;;1.48;0.50;;;;;;;;;;4457666;28;20028;-62
2021/09/16 00:45:36;;;;;;;0.93;0.57;;;;;;;;;;4463709;28;20031;-62
2021/09/16 00:47:48;;;;;;;0.37;0.37;;;;;;;;;;4471859;28;20035;-63
2021/09/16 00:49:59;;;;;;;0.60;0.47;;;;;;;;;;4455701;28;20516;-62
2021/09/16 00:52:10;;;;;;;0.60;0.40;;;;;;;;;;4488360;28;20015;-63
2021/09/16 00:54:21;;;;;;;0.50;0.40;;;;;;;;;;4457388;28;20161;-62
2021/09/16 00:56:32;;;;;;;0.90;0.50;;;;;;;;;;4457080;28;20086;-62
2021/09/16 00:58:43;;;;;;;0.70;0.43;;;;;;;;;;4456402;28;20247;-63
2021/09/16 01:00:55;;;;;;;1.23;0.52;;;;;;;;;;4488240;28;20037;-62
2021/09/16 01:03:05;;;;;;;0.77;0.40;;;;;;;;;;4455462;28;20027;-63
2021/09/16 01:05:16;;;;;;;2.13;0.60;;;;;;;;;;4459554;28;20035;-63
2021/09/16 01:07:27;;;;;;;0.40;0.30;;;;;;;;;;4455787;28;20063;-62
2021/09/16 01:09:37;;;;;;;0.60;0.40;;;;;;;;;;4488323;28;20022;-62
2021/09/16 01:11:48;;;;;;;1.30;0.43;;;;;;;;;;4486724;28;20426;-62
2021/09/16 01:13:58;;;;;;;0.87;0.40;;;;;;;;;;4457424;28;20026;-62
2021/09/16 01:16:09;;;;;;;0.40;0.40;;;;;;;;;;4455337;28;20586;-63
2021/09/16 01:18:19;;;;;;;1.57;0.50;;;;;;;;;;4455985;28;20520;-63
2021/09/16 01:20:29;;;;;;;0.60;0.30;;;;;;;;;;4455967;28;20042;-63
2021/09/16 01:22:40;;;;;;;1.07;0.40;;;;;;;;;;4457588;28;20027;-63
2021/09/16 01:24:51;;;;;;;0.98;0.57;;;;;;;;;;4456180;28;20027;-62
2021/09/16 01:27:01;;;;;;;0.33;0.33;;;;;;;;;;4456864;28;20436;-62
2021/09/16 01:29:13;;;;;;;0.77;0.40;;;;;;;;;;4456397;28;20069;-63
2021/09/16 01:31:53;;;;;;;1.45;0.65;;;;;;;;;;4485809;28;20030;-63
2021/09/16 01:34:04;;;;;;;0.30;0.30;;;;;;;;;;4459557;28;20035;-62
2021/09/16 01:36:15;;;;;;;1.17;0.50;;;;;;;;;;4487081;28;20031;-62
2021/09/16 01:38:25;;;;;;;0.43;0.43;;;;;;;;;;4455701;28;20019;-62
2021/09/16 01:40:36;;;;;;;0.63;0.50;;;;;;;;;;4462347;28;20699;-63
2021/09/16 01:42:46;;;;;;;1.17;0.40;;;;;;;;;;4486295;28;20117;-63
2021/09/16 01:44:57;;;;;;;1.00;0.40;;;;;;;;;;4456427;28;20024;-62
2021/09/16 01:47:07;;;;;;;1.13;0.40;;;;;;;;;;4456409;28;20275;-62
2021/09/16 01:49:18;;;;;;;0.40;0.40;;;;;;;;;;4456770;28;20396;-62
2021/09/16 01:51:28;;;;;;;1.33;0.40;;;;;;;;;;4454699;28;20026;-62
2021/09/16 01:53:39;;;;;;;1.07;0.33;;;;;;;;;;4486081;28;20030;-63
2021/09/16 01:55:49;;;;;;;1.87;0.37;;;;;;;;;;4456910;28;20618;-62
2021/09/16 01:57:59;;;;;;;0.93;0.40;;;;;;;;;;4455047;28;20035;-62
2021/09/16 02:00:10;;;;;;;0.50;0.40;;;;;;;;;;4454883;28;25138;-63
2021/09/16 02:02:24;;;;;;;0.98;0.43;;;;;;;;;;4456509;28;20559;-64
2021/09/16 02:04:34;;;;;;;1.07;0.50;;;;;;;;;;4456679;28;20062;-62
2021/09/16 02:06:45;;;;;;;0.57;0.30;;;;;;;;;;4455534;28;20041;-63
2021/09/16 02:08:55;;;;;;;0.67;0.30;;;;;;;;;;4478586;28;20073;-63
2021/09/16 02:11:06;;;;;;;1.07;0.50;;;;;;;;;;4453604;28;20114;-62
2021/09/16 02:13:16;;;;;;;0.50;0.40;;;;;;;;;;4456529;28;20064;-62
2021/09/16 02:15:27;;;;;;;0.53;0.37;;;;;;;;;;4485901;28;20033;-63
2021/09/16 02:17:37;;;;;;;0.60;0.40;;;;;;;;;;4457724;28;20037;-62
2021/09/16 02:19:48;;;;;;;1.37;0.47;;;;;;;;;;4453579;28;20094;-62
2021/09/16 02:21:58;;;;;;;0.50;0.37;;;;;;;;;;4454708;28;20051;-62
2021/09/16 02:24:08;;;;;;;1.07;0.37;;;;;;;;;;4486909;28;20026;-62
2021/09/16 02:26:19;;;;;;;0.37;0.30;;;;;;;;;;4456367;28;20031;-62
2021/09/16 02:28:29;;;;;;;0.87;0.30;;;;;;;;;;4456024;28;20039;-63
2021/09/16 02:30:41;;;;;;;0.47;0.30;;;;;;;;;;4456904;28;20035;-63
2021/09/16 02:32:52;;;;;;;1.25;0.40;;;;;;;;;;4456367;28;20558;-62
2021/09/16 02:35:02;;;;;;;1.07;0.50;;;;;;;;;;4462519;28;20035;-63
2021/09/16 02:37:13;;;;;;;1.43;0.50;;;;;;;;;;4455201;28;20111;-62
2021/09/16 02:39:23;;;;;;;0.67;0.40;;;;;;;;;;4454514;28;20027;-62
2021/09/16 02:41:34;;;;;;;0.97;0.40;;;;;;;;;;4454042;28;32096;-62
2021/09/16 02:43:44;;;;;;;0.90;0.47;;;;;;;;;;4456733;28;20023;-62
2021/09/16 02:45:54;;;;;;;0.50;0.30;;;;;;;;;;4455306;28;20050;-62
2021/09/16 02:48:05;;;;;;;1.30;0.47;;;;;;;;;;4454340;28;20047;-63
2021/09/16 02:50:16;;;;;;;0.77;0.30;;;;;;;;;;4456811;28;20678;-62
2021/09/16 02:52:26;;;;;;;0.43;0.37;;;;;;;;;;4454576;28;20063;-62
2021/09/16 02:54:37;;;;;;;1.63;0.40;;;;;;;;;;4469941;28;20034;-63
2021/09/16 02:56:47;;;;;;;0.60;0.50;;;;;;;;;;4454947;28;20515;-62
2021/09/16 02:58:58;;;;;;;0.73;0.53;;;;;;;;;;4454950;28;20036;-62
2021/09/16 03:01:08;;;;;;;0.40;0.40;;;;;;;;;;4453523;28;20054;-62
2021/09/16 03:03:19;;;;;;;0.33;0.33;;;;;;;;;;4453592;28;20488;-63
2021/09/16 03:05:29;;;;;;;1.90;0.50;;;;;;;;;;4455000;28;20094;-62
2021/09/16 03:07:39;;;;;;;1.47;0.47;;;;;;;;;;4455157;28;21315;-62
2021/09/16 03:09:50;;;;;;;0.33;0.30;;;;;;;;;;4452646;28;20032;-62
2021/09/16 03:12:00;;;;;;;1.40;0.50;;;;;;;;;;4455590;28;20909;-62
2021/09/16 03:14:11;;;;;;;0.40;0.30;;;;;;;;;;4487413;28;26844;-62
2021/09/16 03:16:21;;;;;;;1.23;0.40;;;;;;;;;;4453841;28;20035;-62
2021/09/16 03:18:31;;;;;;;1.40;0.40;;;;;;;;;;4454400;28;20530;-62
2021/09/16 03:20:42;;;;;;;1.43;0.40;;;;;;;;;;4454812;28;20035;-62
2021/09/16 03:22:52;;;;;;;0.83;0.40;;;;;;;;;;4454514;28;36048;-63
2021/09/16 03:25:04;;;;;;;1.40;0.43;;;;;;;;;;4454571;28;20038;-64
2021/09/16 03:27:14;;;;;;;1.55;0.60;;;;;;;;;;4455261;28;20039;-63
2021/09/16 03:29:25;;;;;;;1.50;0.40;;;;;;;;;;4484504;28;20624;-62
2021/09/16 03:31:35;;;;;;;1.93;0.50;;;;;;;;;;4454106;28;20023;-62
2021/09/16 03:33:46;;;;;;;2.40;0.40;;;;;;;;;;4461988;28;20690;-62
2021/09/16 03:35:56;;;;;;;0.53;0.40;;;;;;;;;;4468021;28;29996;-62
2021/09/16 03:38:07;;;;;;;0.73;0.40;;;;;;;;;;4468632;28;27408;-62
2021/09/16 03:40:17;;;;;;;1.40;0.50;;;;;;;;;;4456391;28;20551;-62
2021/09/16 03:42:28;;;;;;;0.50;0.50;;;;;;;;;;4453955;28;23694;-63
2021/09/16 03:44:38;;;;;;;0.80;0.30;;;;;;;;;;4453160;28;20079;-62
2021/09/16 03:46:51;;;;;;;1.27;0.40;;;;;;;;;;4454213;28;20039;-62
2021/09/16 03:49:01;;;;;;;1.05;0.40;;;;;;;;;;4453386;28;21392;-62
2021/09/16 03:51:12;;;;;;;1.53;0.50;;;;;;;;;;4452633;28;20109;-63
2021/09/16 03:53:22;;;;;;;1.23;0.50;;;;;;;;;;4454805;28;29618;-62
2021/09/16 03:55:33;;;;;;;2.63;0.70;;;;;;;;;;4455733;28;20031;-62
2021/09/16 03:57:43;;;;;;;1.87;0.60;;;;;;;;;;4454792;28;20062;-62
2021/09/16 03:59:54;;;;;;;1.30;0.50;;;;;;;;;;4461591;28;20258;-62
2021/09/16 04:02:04;;;;;;;1.23;0.60;;;;;;;;;;4470151;28;20038;-62
2021/09/16 04:04:15;;;;;;;1.50;0.50;;;;;;;;;;4453535;28;21224;-62
2021/09/16 04:06:25;;;;;;;1.87;0.50;;;;;;;;;;4455375;28;20031;-62
2021/09/16 04:08:35;;;;;;;0.80;0.40;;;;;;;;;;4454852;28;20071;-62
2021/09/16 04:10:46;;;;;;;0.47;0.40;;;;;;;;;;4453928;28;28324;-62
2021/09/16 04:12:56;;;;;;;0.83;0.40;;;;;;;;;;4484853;28;20045;-62
2021/09/16 04:15:07;;;;;;;1.07;0.43;;;;;;;;;;4484058;28;20038;-62
2021/09/16 04:17:17;;;;;;;0.88;0.32;;;;;;;;;;4451173;28;20142;-63
2021/09/16 04:19:28;;;;;;;1.77;0.67;;;;;;;;;;4454453;28;20110;-62
2021/09/16 04:21:38;;;;;;;0.70;0.40;;;;;;;;;;4453829;28;20675;-62
2021/09/16 04:23:49;;;;;;;1.80;0.60;;;;;;;;;;4453452;28;20062;-63
2021/09/16 04:25:59;;;;;;;1.60;0.63;;;;;;;;;;4453189;28;20039;-63
2021/09/16 04:28:10;;;;;;;2.00;0.63;;;;;;;;;;4457932;28;20467;-62
2021/09/16 04:30:20;;;;;;;1.80;0.70;;;;;;;;;;4487219;28;20077;-63
2021/09/16 04:32:31;;;;;;;0.50;0.50;;;;;;;;;;4455772;28;20027;-62
2021/09/16 04:34:41;;;;;;;0.97;0.50;;;;;;;;;;4456156;28;20054;-63
2021/09/16 04:36:52;;;;;;;1.63;0.60;;;;;;;;;;4454884;28;20027;-63
2021/09/16 04:39:04;;;;;;;1.03;0.57;;;;;;;;;;4456054;28;20480;-63
2021/09/16 04:41:14;;;;;;;1.80;0.70;;;;;;;;;;4457046;28;20162;-63
2021/09/16 04:43:25;;;;;;;1.77;0.70;;;;;;;;;;4487661;28;20101;-63
2021/09/16 04:45:36;;;;;;;1.00;0.60;;;;;;;;;;4486739;28;20106;-63
2021/09/16 04:47:46;;;;;;;1.45;0.60;;;;;;;;;;4486848;28;20042;-63
2021/09/16 04:49:57;;;;;;;0.50;0.50;;;;;;;;;;4487255;28;20379;-63
2021/09/16 04:52:07;;;;;;;1.27;0.60;;;;;;;;;;4456622;28;20031;-63
2021/09/16 04:54:18;;;;;;;1.87;0.70;;;;;;;;;;4456889;28;29898;-63
2021/09/16 04:56:28;;;;;;;1.30;0.60;;;;;;;;;;4455885;28;20155;-63
2021/09/16 04:58:38;;;;;;;0.93;0.60;;;;;;;;;;4463903;28;20105;-63
2021/09/16 05:00:49;;;;;;;1.43;0.60;;;;;;;;;;4458135;28;20118;-63
2021/09/16 05:02:59;;;;;;;1.07;0.60;;;;;;;;;;4457640;28;20447;-63
2021/09/16 05:05:10;;;;;;;0.93;0.60;;;;;;;;;;4455965;28;20031;-63
2021/09/16 05:07:20;;;;;;;0.60;0.60;;;;;;;;;;4455910;28;20034;-63
2021/09/16 05:09:31;;;;;;;1.13;0.60;;;;;;;;;;4454320;28;20045;-63
2021/09/16 05:11:42;;;;;;;1.40;0.60;;;;;;;;;;4455931;28;20127;-63
2021/09/16 05:13:52;;;;;;;1.70;0.57;;;;;;;;;;4456029;28;20086;-63
2021/09/16 05:16:03;;;;;;;0.80;0.50;;;;;;;;;;4454170;28;21016;-63
2021/09/16 05:18:13;;;;;;;1.23;0.60;;;;;;;;;;4455622;28;20030;-61
2021/09/16 05:20:24;;;;;;;2.03;0.87;;;;;;;;;;4453290;28;22939;-62
2021/09/16 05:22:34;;;;;;;1.70;0.70;;;;;;;;;;4455456;28;20107;-63
2021/09/16 05:24:45;;;;;;;0.90;0.70;;;;;;;;;;4454695;28;20023;-63
2021/09/16 05:26:55;;;;;;;1.40;0.60;;;;;;;;;;4487238;28;20575;-63
2021/09/16 05:29:06;;;;;;;1.00;0.70;;;;;;;;;;4453844;28;20050;-63
2021/09/16 05:31:16;;;;;;;1.53;0.70;;;;;;;;;;4454835;28;20027;-62
2021/09/16 05:33:27;;;;;;;1.80;0.70;;;;;;;;;;4485941;28;20026;-63
2021/09/16 05:35:39;;;;;;;0.90;0.67;;;;;;;;;;4455865;28;20062;-63
2021/09/16 05:37:49;;;;;;;2.40;0.90;;;;;;;;;;4487277;28;20029;-63
2021/09/16 05:39:59;;;;;;;1.00;0.80;;;;;;;;;;4455532;28;20566;-63
2021/09/16 05:42:10;;;;;;;2.67;0.93;;;;;;;;;;4455643;28;20078;-63
2021/09/16 05:44:20;;;;;;;1.53;0.80;;;;;;;;;;4454699;28;22860;-62
2021/09/16 05:46:32;;;;;;;1.17;0.90;;;;;;;;;;4455064;28;20035;-63
2021/09/16 05:48:43;;;;;;;1.80;0.80;;;;;;;;;;4454248;28;20090;-62
2021/09/16 05:50:53;;;;;;;1.20;0.77;;;;;;;;;;4462664;28;20122;-62
2021/09/16 05:53:05;;;;;;;2.10;0.93;;;;;;;;;;4454635;28;22372;-63
2021/09/16 05:55:16;;;;;;;1.55;0.90;;;;;;;;;;4455095;28;20058;-62
2021/09/16 05:57:26;;;;;;;1.30;0.80;;;;;;;;;;4456204;28;20106;-62
2021/09/16 05:59:37;;;;;;;1.50;0.77;;;;;;;;;;4454494;28;20035;-62
2021/09/16 06:01:47;;;;;;;1.40;0.70;;;;;;;;;;4454818;28;20038;-62
2021/09/16 06:03:58;;;;;;;1.33;0.83;;;;;;;;;;4454045;28;20500;-62
2021/09/16 06:06:08;;;;;;;1.70;0.80;;;;;;;;;;4455495;28;20031;-62
2021/09/16 06:08:18;;;;;;;2.80;1.17;;;;;;;;;;4453877;28;20086;-62
2021/09/16 06:10:29;;;;;;;0.80;0.77;;;;;;;;;;4454125;28;20085;-62
2021/09/16 06:12:39;;;;;;;1.90;1.00;;;;;;;;;;4454367;28;20020;-62
2021/09/16 06:14:50;;;;;;;1.50;0.80;;;;;;;;;;4453352;28;20063;-63
2021/09/16 06:17:01;;;;;;;2.27;0.90;;;;;;;;;;4471126;28;20093;-63
2021/09/16 06:19:11;;;;;;;1.92;0.80;;;;;;;;;;4484627;28;20797;-62
2021/09/16 06:21:22;;;;;;;1.37;1.00;;;;;;;;;;4454133;28;20096;-63
2021/09/16 06:23:32;;;;;;;2.20;1.13;;;;;;;;;;4453805;28;20035;-62
2021/09/16 06:25:43;;;;;;;1.83;0.90;;;;;;;;;;4455225;28;20032;-63
2021/09/16 06:27:54;;;;;;;1.80;0.73;;;;;;;;;;4486374;28;20048;-63
2021/09/16 06:30:04;;;;;;;2.13;0.90;;;;;;;;;;4469243;28;20014;-62
2021/09/16 06:32:15;;;;;;;1.70;0.67;;;;;;;;;;4452889;28;20035;-62
2021/09/16 06:34:25;;;;;;;1.70;0.70;;;;;;;;;;4454747;28;20023;-62
2021/09/16 06:36:36;;;;;;;2.43;0.80;;;;;;;;;;4454662;28;20184;-62
2021/09/16 06:38:46;;;;;;;1.67;0.70;;;;;;;;;;4454529;28;20027;-62
2021/09/16 06:40:57;;;;;;;1.93;0.80;;;;;;;;;;4453767;28;27276;-62
2021/09/16 06:43:07;;;;;;;1.70;0.90;;;;;;;;;;4484421;28;20030;-62
2021/09/16 06:45:18;;;;;;;1.93;0.90;;;;;;;;;;4455507;28;20065;-62
2021/09/16 06:47:28;;;;;;;2.63;1.10;;;;;;;;;;4454104;28;20406;-62
2021/09/16 06:49:56;;;;;;;1.13;0.83;;;;;;;;;;4453413;28;20027;-62
2021/09/16 06:52:07;;;;;;;1.42;0.88;;;;;;;;;;4452727;28;20035;-62
2021/09/16 06:54:17;;;;;;;1.37;1.03;;;;;;;;;;4454717;28;20031;-62
2021/09/16 06:56:28;;;;;;;1.20;0.93;;;;;;;;;;4454211;28;20110;-63
2021/09/16 06:58:38;;;;;;;2.20;1.03;;;;;;;;;;4453601;28;20030;-62
2021/09/16 07:00:48;;;;;;;1.37;0.80;;;;;;;;;;4480953;28;29847;-64
2021/09/16 07:02:59;;;;;;;2.67;1.00;;;;;;;;;;4452721;28;20036;-63
2021/09/16 07:05:10;;;;;;;2.60;1.10;;;;;;;;;;4448919;28;20023;-63
2021/09/16 07:07:20;;;;;;;2.05;1.25;;;;;;;;;;4452934;28;20665;-64
2021/09/16 07:09:31;;;;;;;4.50;1.10;;;;;;;;;;4453150;28;20223;-64
2021/09/16 07:11:41;;;;;;;2.93;1.13;;;;;;;;;;4453646;28;20039;-65
2021/09/16 07:13:52;;;;;;;1.70;1.10;;;;;;;;;;4467091;28;20034;-62
2021/09/16 07:16:03;;;;;;;1.90;1.10;;;;;;;;;;4453626;28;20512;-62
2021/09/16 07:18:13;;;;;;;1.67;1.00;;;;;;;;;;4454069;28;20042;-63
2021/09/16 07:20:23;;;;;;;1.80;0.97;;;;;;;;;;4453375;28;20149;-70
2021/09/16 07:22:34;;;;;;;2.87;1.20;;;;;;;;;;4460996;28;20110;-63
2021/09/16 07:24:44;;;;;;;1.80;0.90;;;;;;;;;;4484364;28;20021;-64
2021/09/16 07:26:55;;;;;;;2.23;1.00;;;;;;;;;;4486324;28;20485;-64
2021/09/16 07:29:06;;;;;;;2.42;1.10;;;;;;;;;;4451263;28;20141;-63
2021/09/16 07:31:17;;;;;;;1.60;0.97;;;;;;;;;;4454555;28;20481;-64
2021/09/16 07:33:27;;;;;;;2.25;1.05;;;;;;;;;;4452905;28;20032;-64
2021/09/16 07:35:38;;;;;;;2.40;1.10;;;;;;;;;;4452815;28;20038;-64
2021/09/16 07:37:48;;;;;;;2.30;1.00;;;;;;;;;;4476896;28;20037;-63
2021/09/16 07:40:00;;;;;;;1.77;0.90;;;;;;;;;;4468325;28;20030;-62
2021/09/16 07:42:10;;;;;;;;;;;;;;;;;;4453325;28;20053;-63
2021/09/16 07:44:21;;;;;;;3.10;1.20;;;;;;;;;;4483228;28;19920;-65
2021/09/16 07:46:31;;;;;;;3.50;1.40;;;;;;;;;;4452995;28;20523;-64
2021/09/16 07:48:42;;;;;;;1.77;1.30;;;;;;;;;;4452780;28;20035;-64
2021/09/16 07:50:52;;;;;;;2.27;1.17;;;;;;;;;;4483741;28;20061;-62
2021/09/16 07:53:03;;;;;;;1.87;1.20;;;;;;;;;;4484637;28;20034;-63
2021/09/16 07:55:13;;;;;;;1.23;1.10;;;;;;;;;;4454273;28;20089;-63
2021/09/16 07:57:24;;;;;;;1.67;1.10;;;;;;;;;;4452755;28;20054;-64
2021/09/16 07:59:34;;;;;;;3.40;1.20;;;;;;;;;;4452126;28;20027;-63
2021/09/16 08:01:45;;;;;;;3.20;1.30;;;;;;;;;;4482819;28;25612;-62
2021/09/16 08:03:55;;;;;;;2.87;1.50;;;;;;;;;;4455281;28;20097;-63
2021/09/16 08:06:06;;;;;;;3.50;1.60;;;;;;;;;;4486139;28;20109;-62
2021/09/16 08:08:16;;;;;;;3.33;1.90;;;;;;;;;;4456263;28;20491;-62
2021/09/16 08:10:27;;;;;;;2.87;1.83;;;;;;;;;;4456401;28;26883;-63
2021/09/16 08:12:37;;;;;;;2.90;1.67;;;;;;;;;;4456648;28;20068;-63
2021/09/16 08:14:48;;;;;;;;;;;;;;;;;;4470296;28;20766;-64
2021/09/16 08:16:59;;;;;;;2.37;1.50;;;;;;;;;;4486163;28;19916;-63
2021/09/16 08:19:09;;;;;;;3.23;1.80;;;;;;;;;;4465392;28;20027;-63
2021/09/16 08:21:21;;;;;;;3.07;1.70;;;;;;;;;;4456563;28;20500;-63
2021/09/16 08:23:32;;;;;;;2.70;1.85;;;;;;;;;;4456691;28;20550;-63
2021/09/16 08:25:43;;;;;;;3.43;1.90;;;;;;;;;;4456795;28;20027;-63
2021/09/16 08:27:53;;;;;;;2.70;1.80;;;;;;;;;;4455511;28;20491;-62
2021/09/16 08:30:05;;;;;;;4.67;2.00;;;;;;;;;;4455250;28;20513;-63
2021/09/16 08:32:18;;;;;;;2.58;1.92;;;;;;;;;;4455349;28;20027;-63
2021/09/16 08:34:30;;;;;;;4.20;1.95;;;;;;;;;;4488588;28;20541;-63
2021/09/16 08:36:41;;;;;;;4.32;2.55;;;;;;;;;;4455611;28;20027;-64
2021/09/16 08:38:52;;;;;;;4.07;2.35;;;;;;;;;;4485985;28;20038;-63
2021/09/16 08:41:03;;;;;;;2.80;2.13;;;;;;;;;;4464990;28;20018;-63
2021/09/16 08:43:13;;;;;;;4.20;2.42;;;;;;;;;;4486485;28;20034;-66
2021/09/16 08:45:23;;;;;;;3.77;2.43;;;;;;;;;;4456144;28;20377;-65
2021/09/16 08:47:37;;;;;;;3.87;2.67;;;;;;;;;;4487018;28;20034;-66
2021/09/16 08:49:47;;;;;;;4.63;2.90;;;;;;;;;;4456763;28;20980;-64
2021/09/16 08:51:58;;;;;;;3.87;2.53;;;;;;;;;;4455581;28;20026;-66
2021/09/16 08:54:10;;;;;;;4.00;2.70;;;;;;;;;;4458175;28;20062;-65
2021/09/16 08:56:21;;;;;;;4.63;3.22;;;;;;;;;;4462933;28;20022;-64
2021/09/16 08:58:32;;;;;;;4.30;3.40;;;;;;;;;;4473100;28;20027;-65
2021/09/16 09:00:42;;;;;;;4.87;3.03;;;;;;;;;;4453648;28;21968;-63
2021/09/16 09:02:54;;;;;;;4.20;3.50;;;;;;;;;;4453446;28;20070;-65
2021/09/16 09:05:07;;;;;;;5.88;3.60;;;;;;;;;;4455948;28;20564;-66
2021/09/16 09:07:19;;;;;;;5.40;3.63;;;;;;;;;;4486425;28;20226;-65
2021/09/16 09:09:30;;;;;;;4.80;3.30;;;;;;;;;;4486654;28;20026;-64
2021/09/16 09:11:56;;;;;;;4.22;3.20;;;;;;;;;;4455908;28;20034;-63
2021/09/16 09:14:06;;;;;;;4.78;2.88;;;;;;;;;;4454282;28;20134;-64
2021/09/16 09:16:17;;;;;;;3.57;2.93;;;;;;;;;;4453641;28;22550;-65
2021/09/16 09:18:43;;;;;;;4.57;3.10;;;;;;;;;;4455621;28;20555;-65
2021/09/16 09:21:03;;;;;;;3.47;2.90;;;;;;;;;;4453431;28;20035;-65
2021/09/16 09:23:21;;;;;;;3.80;3.00;;;;;;;;;;4453926;28;20232;-63
2021/09/16 09:25:32;;;;;;;4.20;3.35;;;;;;;;;;4485433;28;20049;-64
2021/09/16 09:27:53;;;;;;;4.37;3.20;;;;;;;;;;4469164;28;20477;-63
2021/09/16 09:30:22;;;;;;;4.90;3.30;;;;;;;;;;4453608;28;20047;-65
2021/09/16 09:32:46;;;;;;;4.70;3.15;;;;;;;;;;4454997;28;20121;-64
2021/09/16 09:34:57;;;;;;;4.28;3.40;;;;;;;;;;4454885;28;20662;-64
2021/09/16 09:37:18;;;;;;;5.10;3.67;;;;;;;;;;4454519;28;20070;-64
2021/09/16 09:39:29;;;;;;;5.00;3.20;;;;;;;;;;4462129;28;20070;-64
2021/09/16 09:41:39;;;;;;;3.87;3.10;;;;;;;;;;4454167;28;21071;-64
2021/09/16 09:43:50;;;;;;;4.77;3.00;;;;;;;;;;4462909;28;20023;-68
2021/09/16 09:46:06;;;;;;;4.03;3.00;;;;;;;;;;4455716;28;20038;-66
2021/09/16 09:48:17;;;;;;;4.03;3.35;;;;;;;;;;4452920;28;20310;-64
2021/09/16 09:50:28;;;;;;;3.95;3.30;;;;;;;;;;4469601;28;20027;-65
2021/09/16 09:52:38;;;;;;;4.60;3.50;;;;;;;;;;4454670;28;20050;-64
2021/09/16 09:54:49;;;;;;;4.30;3.50;;;;;;;;;;4478184;28;20101;-65
2021/09/16 09:57:06;;;;;;;4.83;4.03;;;;;;;;;;4485791;28;34125;-65
2021/09/16 09:59:19;;;;;;;4.88;3.90;;;;;;;;;;4455281;28;20075;-65
2021/09/16 10:01:35;;;;;;;4.65;3.90;;;;;;;;;;4455535;28;20035;-65
2021/09/16 10:03:45;;;;;;;5.18;3.90;;;;;;;;;;4453810;28;20080;-64
2021/09/16 10:06:08;;;;;;;4.77;3.90;;;;;;;;;;4452357;28;23454;-65
2021/09/16 10:08:19;;;;;;;5.30;4.15;;;;;;;;;;4457409;28;20082;-64
2021/09/16 10:10:38;;;;;;;6.20;4.40;;;;;;;;;;4467081;28;20098;-64
2021/09/16 10:12:52;;;;;;;5.28;4.22;;;;;;;;;;4467698;28;21098;-66
2021/09/16 10:15:04;;;;;;;6.10;4.45;;;;;;;;;;4454117;28;20718;-65
2021/09/16 10:17:14;;;;;;;5.80;4.47;;;;;;;;;;4451492;28;20701;-64
2021/09/16 10:19:25;;;;;;;6.10;4.43;;;;;;;;;;4455009;28;20439;-64
2021/09/16 10:21:36;;;;;;;6.80;4.87;;;;;;;;;;4485769;28;20069;-64
2021/09/16 10:23:47;;;;;;;6.80;4.97;;;;;;;;;;4484266;28;20836;-63
2021/09/16 10:25:58;;;;;;;6.43;5.00;;;;;;;;;;4453284;28;20039;-64
2021/09/16 10:28:08;;;;;;;5.50;4.53;;;;;;;;;;4454163;28;20062;-63
2021/09/16 10:30:22;;;;;;;5.13;4.50;;;;;;;;;;4453913;28;20057;-63
2021/09/16 10:32:32;;;;;;;6.45;4.80;;;;;;;;;;4453730;28;20111;-66
2021/09/16 10:34:45;;;;;;;5.27;4.23;;;;;;;;;;4453140;28;20079;-65
2021/09/16 10:37:12;;;;;;;6.93;4.70;;;;;;;;;;4454350;28;20090;-64
2021/09/16 10:39:22;;;;;;;6.13;4.65;;;;;;;;;;4460620;28;20042;-64
2021/09/16 10:41:34;;;;;;;4.77;4.20;;;;;;;;;;4452863;28;28273;-64
2021/09/16 10:43:46;;;;;;;5.53;4.13;;;;;;;;;;4445386;28;20603;-64
2021/09/16 10:45:56;;;;;;;4.93;3.90;;;;;;;;;;4453112;28;20127;-64
2021/09/16 10:48:28;;;;;;;4.50;3.67;;;;;;;;;;4454736;28;20033;-67
2021/09/16 10:50:42;;;;;;;4.40;3.60;;;;;;;;;;4465904;28;20033;-68
2021/09/16 10:53:31;;;;;;;4.65;3.92;;;;;;;;;;4455735;28;20035;-67
2021/09/16 10:55:41;;;;;;;5.20;3.83;;;;;;;;;;4454317;28;20591;-68
2021/09/16 10:57:52;;;;;;;4.93;4.00;;;;;;;;;;4456430;28;20485;-67
2021/09/16 11:00:17;;;;;;;4.40;3.67;;;;;;;;;;4485204;28;20034;-63
2021/09/16 11:02:30;;;;;;;4.78;3.53;;;;;;;;;;4483841;28;20026;-61
2021/09/16 11:04:56;;;;;;;3.78;3.30;;;;;;;;;;4484640;28;20109;-62
2021/09/16 11:07:07;;;;;;;3.83;3.20;;;;;;;;;;4453469;28;20039;-61
2021/09/16 11:09:25;;;;;;;5.53;3.93;;;;;;;;;;4455437;28;20411;-61
2021/09/16 11:12:01;;;;;;;5.50;3.60;;;;;;;;;;4452792;28;20093;-62
2021/09/16 11:14:26;;;;;;;5.28;3.60;;;;;;;;;;4477804;28;20022;-62
2021/09/16 11:16:36;;;;;;;5.68;3.63;;;;;;;;;;4452996;28;20066;-62
2021/09/16 11:18:48;;;;;;;4.33;3.20;;;;;;;;;;4453395;28;20103;-61
2021/09/16 11:21:04;;;;;;;5.50;3.67;;;;;;;;;;4451162;28;20962;-62
2021/09/16 11:23:17;;;;;;;5.88;3.88;;;;;;;;;;4453970;28;20035;-62
2021/09/16 11:25:39;;;;;;;5.90;3.67;;;;;;;;;;4454241;28;21637;-63
2021/09/16 11:27:54;;;;;;;5.18;3.58;;;;;;;;;;4461504;28;20691;-62
2021/09/16 11:30:07;;;;;;;4.97;3.60;;;;;;;;;;4453406;28;20042;-62
2021/09/16 11:32:18;;;;;;;4.68;3.88;;;;;;;;;;4455798;28;21269;-61
2021/09/16 11:34:29;;;;;;;6.32;4.38;;;;;;;;;;4456428;28;20050;-61
2021/09/16 11:37:16;;;;;;;5.87;4.33;;;;;;;;;;4457075;28;20039;-61
2021/09/16 11:39:26;;;;;;;5.10;3.92;;;;;;;;;;4453935;28;21739;-62
2021/09/16 11:41:37;;;;;;;5.40;4.17;;;;;;;;;;4454181;28;20099;-61
2021/09/16 11:43:47;;;;;;;5.00;4.07;;;;;;;;;;4452645;28;20055;-61
2021/09/16 11:45:59;;;;;;;6.17;4.20;;;;;;;;;;4453080;28;20021;-61
2021/09/16 11:48:16;;;;;;;6.07;4.50;;;;;;;;;;4458805;28;20053;-61
2021/09/16 11:50:32;;;;;;;4.90;4.20;;;;;;;;;;4461599;28;20027;-61
2021/09/16 11:52:43;;;;;;;4.97;4.00;;;;;;;;;;4485350;28;20038;-61
2021/09/16 11:55:07;;;;;;;4.77;3.70;;;;;;;;;;4458747;28;21029;-61
2021/09/16 11:57:17;;;;;;;4.18;3.78;;;;;;;;;;4484689;28;20845;-61
2021/09/16 11:59:27;;;;;;;5.17;4.43;;;;;;;;;;4467640;28;20086;-62
2021/09/16 12:01:38;;;;;;;4.57;3.53;;;;;;;;;;4452227;28;20027;-61
2021/09/16 12:03:57;;;;;;;5.60;3.60;;;;;;;;;;4453818;28;20031;-61
2021/09/16 12:06:09;;;;;;;5.68;3.88;;;;;;;;;;4482804;28;20041;-61
2021/09/16 12:08:26;;;;;;;5.47;3.70;;;;;;;;;;4452575;28;20094;-61
2021/09/16 12:10:43;;;;;;;5.43;3.58;;;;;;;;;;4484397;28;20596;-61
2021/09/16 12:12:54;;;;;;;5.13;3.70;;;;;;;;;;4468411;28;20669;-61
2021/09/16 12:15:04;;;;;;;5.13;3.87;;;;;;;;;;4454119;28;27211;-62
2021/09/16 12:17:15;;;;;;;5.53;3.85;;;;;;;;;;4452840;28;20031;-61
2021/09/16 12:19:25;;;;;;;5.23;3.93;;;;;;;;;;4483673;28;20050;-61
2021/09/16 12:21:38;;;;;;;4.97;3.90;;;;;;;;;;4482409;28;20072;-61
2021/09/16 12:23:50;;;;;;;4.68;3.72;;;;;;;;;;4467171;28;20144;-62
2021/09/16 12:26:07;;;;;;;4.70;3.75;;;;;;;;;;4452914;28;20019;-62
2021/09/16 12:28:17;;;;;;;4.63;3.83;;;;;;;;;;4454002;28;20043;-61
2021/09/16 12:30:34;;;;;;;3.97;2.90;;;;;;;;;;4484060;28;20030;-61
2021/09/16 12:32:44;;;;;;;3.65;3.17;;;;;;;;;;4483608;28;20054;-61
2021/09/16 12:34:55;;;;;;;3.17;2.80;;;;;;;;;;4452294;28;20122;-62
2021/09/16 12:37:11;;;;;;;4.27;2.40;;;;;;;;;;4466711;28;20046;-62
2021/09/16 12:39:23;;;;;;;3.45;2.67;;;;;;;;;;4452408;28;20121;-63
2021/09/16 12:41:41;;;;;;;3.67;2.70;;;;;;;;;;4459989;28;20065;-62
2021/09/16 12:44:03;;;;;;;3.45;2.97;;;;;;;;;;4483802;28;20827;-62
2021/09/16 12:46:17;;;;;;;4.15;2.97;;;;;;;;;;4453029;28;20559;-62
2021/09/16 12:48:28;;;;;;;4.80;3.20;;;;;;;;;;4453216;28;20670;-62
2021/09/16 12:50:38;;;;;;;3.57;3.00;;;;;;;;;;4485349;28;36508;-62
2021/09/16 12:52:49;;;;;;;5.27;3.20;;;;;;;;;;4454426;28;20031;-62
2021/09/16 12:55:02;;;;;;;3.78;3.10;;;;;;;;;;4487910;28;20038;-62
2021/09/16 12:57:15;;;;;;;2.53;2.00;;;;;;;;;;4455424;28;20035;-63
2021/09/16 12:59:26;;;;;;;3.22;2.03;;;;;;;;;;4471237;28;20114;-62
2021/09/16 13:01:36;;;;;;;2.40;1.77;;;;;;;;;;4456857;28;20035;-62
2021/09/16 13:04:05;;;;;;;3.10;1.87;;;;;;;;;;4454755;28;33241;-61
2021/09/16 13:06:16;;;;;;;2.88;2.13;;;;;;;;;;4455162;28;20043;-62
2021/09/16 13:08:26;;;;;;;3.00;2.00;;;;;;;;;;4456579;28;20747;-62
2021/09/16 13:10:42;;;;;;;2.60;1.90;;;;;;;;;;4453184;28;20043;-62
2021/09/16 13:13:06;;;;;;;3.30;2.00;;;;;;;;;;4455075;28;20043;-62